Time;durP1;ratioP1;P1;durP2;ratioP2;P2;SDS_P1;SDS_P2;PMS_P1;PMS_P2;Temp;Humidity;BMP_temperature;BMP_pressure;BME280_temperature;BME280_humidity;BME280_pressure;Samples;Min_cycle;Max_cycle;Signal;HPM_P1;HPM_P2
2021/08/21 00:00:50;;;;;;;2.23;1.40;;;23.90;55.90;;;;;;6177992;23;20172;-83
2021/08/21 00:03:16;;;;;;;1.63;1.53;;;23.90;55.30;;;;;;6204416;23;20183;-83
2021/08/21 00:05:41;;;;;;;1.83;1.57;;;23.90;55.40;;;;;;6204239;23;20579;-83
2021/08/21 00:08:07;;;;;;;1.83;1.70;;;23.90;55.30;;;;;;6204657;23;20216;-83
2021/08/21 00:10:34;;;;;;;1.50;1.37;;;23.90;55.30;;;;;;6181003;23;20163;-83
2021/08/21 00:13:00;;;;;;;1.53;1.43;;;23.90;55.30;;;;;;6208193;23;20179;-83
2021/08/21 00:15:26;;;;;;;2.00;1.80;;;23.90;55.30;;;;;;6206177;23;20380;-83
2021/08/21 00:17:55;;;;;;;1.83;1.53;;;23.90;55.30;;;;;;6207905;23;20517;-83
2021/08/21 00:20:22;;;;;;;1.67;1.50;;;23.90;55.30;;;;;;6206802;23;20367;-83
2021/08/21 00:22:47;;;;;;;1.70;1.57;;;23.90;55.30;;;;;;6179471;23;20379;-82
2021/08/21 00:25:14;;;;;;;1.57;1.47;;;23.90;55.30;;;;;;6206996;23;20880;-83
2021/08/21 00:27:41;;;;;;;1.77;1.67;;;23.90;55.30;;;;;;6206137;23;20190;-82
2021/08/21 00:30:08;;;;;;;1.90;1.67;;;23.90;55.30;;;;;;6178754;23;20388;-82
2021/08/21 00:32:34;;;;;;;1.40;1.30;;;23.90;55.30;;;;;;6203897;23;20375;-82
2021/08/21 00:35:00;;;;;;;1.53;1.43;;;23.90;55.30;;;;;;6178441;23;20437;-82
2021/08/21 00:37:25;;;;;;;1.80;1.67;;;23.90;55.30;;;;;;6177323;23;20379;-82
2021/08/21 00:39:51;;;;;;;1.50;1.40;;;23.90;55.30;;;;;;6178332;23;20163;-82
2021/08/21 00:42:17;;;;;;;2.00;1.40;;;23.90;55.30;;;;;;6204410;23;20170;-82
2021/08/21 00:44:43;;;;;;;1.90;1.60;;;23.90;55.30;;;;;;6204780;23;20152;-81
2021/08/21 00:47:14;;;;;;;1.83;1.50;;;23.90;55.30;;;;;;6179105;23;20168;-81
2021/08/21 00:49:43;;;;;;;1.60;1.50;;;23.90;55.30;;;;;;6178633;23;20391;-81
2021/08/21 00:52:12;;;;;;;1.87;1.77;;;23.90;55.30;;;;;;6205351;23;20425;-82
2021/08/21 00:54:39;;;;;;;1.80;1.60;;;23.90;55.30;;;;;;6179100;23;20419;-82
2021/08/21 00:57:06;;;;;;;1.60;1.50;;;23.90;55.30;;;;;;6178957;23;20380;-82
2021/08/21 00:59:36;;;;;;;1.63;1.53;;;23.90;55.30;;;;;;6179926;23;20371;-82
2021/08/21 01:02:03;;;;;;;2.10;1.63;;;23.90;55.30;;;;;;6206011;23;20718;-82
2021/08/21 01:04:34;;;;;;;1.90;1.70;;;23.90;55.30;;;;;;6206129;23;20901;-82
2021/08/21 01:07:03;;;;;;;2.00;1.73;;;23.90;55.30;;;;;;6180178;23;20387;-82
2021/08/21 01:09:29;;;;;;;1.70;1.60;;;23.90;55.30;;;;;;6208045;23;20371;-82
2021/08/21 01:11:55;;;;;;;1.70;1.60;;;23.90;55.30;;;;;;6204935;23;20953;-82
2021/08/21 01:14:22;;;;;;;1.80;1.70;;;23.90;55.30;;;;;;6206694;23;20500;-82
2021/08/21 01:16:48;;;;;;;1.80;1.50;;;23.90;55.30;;;;;;6180985;23;20152;-82
2021/08/21 01:19:18;;;;;;;1.73;1.63;;;23.90;55.80;;;;;;6204881;23;20407;-82
2021/08/21 01:21:44;;;;;;;1.80;1.70;;;24.00;55.30;;;;;;6179401;23;20417;-81
2021/08/21 01:24:10;;;;;;;2.10;1.80;;;24.00;55.30;;;;;;6205720;23;20834;-81
2021/08/21 01:26:35;;;;;;;1.70;1.50;;;24.00;55.30;;;;;;6194534;23;20417;-82
2021/08/21 01:29:01;;;;;;;1.87;1.67;;;24.00;55.20;;;;;;6231943;23;20227;-81
2021/08/21 01:31:27;;;;;;;1.93;1.50;;;24.00;55.20;;;;;;6233272;23;20159;-82
2021/08/21 01:33:53;;;;;;;2.00;1.60;;;24.00;55.20;;;;;;6232656;23;20179;-81
2021/08/21 01:36:18;;;;;;;1.60;1.50;;;24.00;55.20;;;;;;6234047;23;20151;-81
2021/08/21 01:38:57;;;;;;;2.23;1.83;;;24.00;55.20;;;;;;6232689;23;20155;-82
2021/08/21 01:41:23;;;;;;;2.50;1.80;;;24.00;55.20;;;;;;6234350;23;20166;-82
2021/08/21 01:43:49;;;;;;;2.23;2.03;;;24.00;55.20;;;;;;6232682;23;20386;-82
2021/08/21 01:46:15;;;;;;;1.90;1.57;;;24.00;55.20;;;;;;6233903;23;20390;-82
2021/08/21 01:48:40;;;;;;;1.40;1.30;;;24.00;55.20;;;;;;6235599;23;20154;-82
2021/08/21 01:51:06;;;;;;;1.93;1.73;;;24.00;55.20;;;;;;6233992;23;20150;-82
2021/08/21 01:53:32;;;;;;;1.90;1.80;;;24.00;55.20;;;;;;6233705;23;20185;-83
2021/08/21 01:55:57;;;;;;;1.73;1.57;;;24.00;55.20;;;;;;6235552;23;20146;-83
2021/08/21 01:58:23;;;;;;;1.80;1.60;;;24.00;55.20;;;;;;6260442;23;20189;-83
2021/08/21 02:00:49;;;;;;;5.30;1.90;;;24.00;55.20;;;;;;6236285;23;20205;-81
2021/08/21 02:03:17;;;;;;;1.97;1.50;;;24.00;55.20;;;;;;6259564;23;20230;-82
2021/08/21 02:05:43;;;;;;;2.07;1.70;;;24.00;55.20;;;;;;6237466;23;20402;-82
2021/08/21 02:08:09;;;;;;;2.17;1.77;;;24.00;55.20;;;;;;6238600;23;20378;-81
2021/08/21 02:10:35;;;;;;;2.13;1.93;;;24.00;55.20;;;;;;6235636;23;20155;-83
2021/08/21 02:13:00;;;;;;;2.40;1.83;;;24.00;55.20;;;;;;6262827;23;20182;-83
2021/08/21 02:15:26;;;;;;;1.90;1.70;;;24.00;55.20;;;;;;6237172;23;20457;-82
2021/08/21 02:17:52;;;;;;;2.07;1.80;;;24.00;55.20;;;;;;6234745;23;20586;-82
2021/08/21 02:20:18;;;;;;;1.90;1.77;;;24.00;55.20;;;;;;6262399;23;20162;-83
2021/08/21 02:22:46;;;;;;;1.90;1.70;;;24.00;55.20;;;;;;6236043;23;20154;-83
2021/08/21 02:25:13;;;;;;;2.27;1.90;;;24.00;55.20;;;;;;6234166;23;20378;-83
2021/08/21 02:27:43;;;;;;;1.93;1.73;;;24.00;55.20;;;;;;6207770;23;20387;-83
2021/08/21 02:30:09;;;;;;;1.77;1.63;;;24.00;55.20;;;;;;6177111;23;20402;-83
2021/08/21 02:32:35;;;;;;;1.93;1.63;;;24.00;55.20;;;;;;6202062;23;20372;-82
2021/08/21 02:35:02;;;;;;;1.90;1.70;;;24.00;55.20;;;;;;6202633;23;20368;-82
2021/08/21 02:37:28;;;;;;;1.93;1.73;;;24.00;55.20;;;;;;6202612;23;20372;-82
2021/08/21 02:39:54;;;;;;;2.20;2.00;;;24.00;55.30;;;;;;6202350;23;20368;-82
2021/08/21 02:42:19;;;;;;;2.20;2.00;;;24.00;55.20;;;;;;6201666;23;20175;-82
2021/08/21 02:44:45;;;;;;;2.20;2.00;;;24.00;55.20;;;;;;6202445;23;20375;-83
2021/08/21 02:47:11;;;;;;;1.93;1.77;;;24.00;55.20;;;;;;6202717;23;20190;-82
2021/08/21 02:49:37;;;;;;;1.93;1.80;;;24.00;55.20;;;;;;6201900;23;20154;-82
2021/08/21 02:52:03;;;;;;;2.00;1.73;;;24.00;55.20;;;;;;6177762;23;20194;-82
2021/08/21 02:54:30;;;;;;;2.30;2.10;;;24.00;55.20;;;;;;6203039;23;20176;-81
2021/08/21 02:56:56;;;;;;;2.30;1.90;;;24.00;55.20;;;;;;6204108;23;20466;-82
2021/08/21 02:59:21;;;;;;;1.97;1.63;;;24.00;55.20;;;;;;6207502;23;20371;-81
2021/08/21 03:01:47;;;;;;;1.70;1.47;;;24.00;55.30;;;;;;6207467;23;20399;-81
2021/08/21 03:04:13;;;;;;;1.90;1.70;;;24.00;55.20;;;;;;6208908;23;20162;-81
2021/08/21 03:06:38;;;;;;;1.70;1.60;;;24.00;55.20;;;;;;6180880;23;20167;-82
2021/08/21 03:09:04;;;;;;;2.17;1.87;;;24.00;55.20;;;;;;6205258;23;20207;-81
2021/08/21 03:11:30;;;;;;;1.97;1.77;;;24.00;55.20;;;;;;6179719;23;20186;-81
2021/08/21 03:13:56;;;;;;;2.37;1.77;;;24.00;55.20;;;;;;6177034;23;20180;-81
2021/08/21 03:16:22;;;;;;;1.50;1.40;;;24.00;55.10;;;;;;6178270;23;20406;-82
2021/08/21 03:18:48;;;;;;;1.70;1.60;;;24.00;55.10;;;;;;6179348;23;20399;-82
2021/08/21 03:21:15;;;;;;;1.83;1.57;;;24.10;55.20;;;;;;6175428;23;20433;-81
2021/08/21 03:23:41;;;;;;;1.70;1.60;;;24.10;55.10;;;;;;6201619;23;20155;-81
2021/08/21 03:26:07;;;;;;;1.90;1.77;;;24.10;55.70;;;;;;6116951;23;1502264;-82
2021/08/21 03:28:33;;;;;;;2.20;2.00;;;24.10;55.10;;;;;;6232479;23;20143;-83
2021/08/21 03:30:59;;;;;;;2.87;2.00;;;24.10;55.10;;;;;;6233574;23;20387;-83
2021/08/21 03:33:24;;;;;;;1.80;1.70;;;24.10;55.00;;;;;;6233703;23;20181;-82
2021/08/21 03:35:50;;;;;;;1.77;1.63;;;24.10;55.00;;;;;;6234486;23;20143;-83
2021/08/21 03:38:16;;;;;;;2.00;1.80;;;24.10;55.00;;;;;;6232948;23;20178;-83
2021/08/21 03:40:42;;;;;;;1.90;1.80;;;24.10;55.00;;;;;;6233076;23;20155;-83
2021/08/21 03:43:07;;;;;;;1.67;1.57;;;24.10;55.00;;;;;;6234205;23;20155;-83
2021/08/21 03:45:40;;;;;;;1.73;1.50;;;24.10;55.00;;;;;;6235899;23;20151;-83
2021/08/21 03:48:06;;;;;;;2.47;1.70;;;24.10;55.00;;;;;;6239006;23;20141;-83
2021/08/21 03:50:31;;;;;;;3.47;3.17;;;24.10;55.00;;;;;;6238743;23;20378;-83
2021/08/21 03:52:57;;;;;;;1.80;1.70;;;24.10;55.00;;;;;;6237598;23;20442;-82
2021/08/21 03:55:23;;;;;;;2.10;1.90;;;24.10;55.00;;;;;;6240304;23;20151;-83
2021/08/21 03:57:48;;;;;;;2.10;1.90;;;24.10;55.00;;;;;;6238156;23;20173;-83
2021/08/21 04:00:15;;;;;;;1.90;1.80;;;24.10;55.00;;;;;;6240404;23;20151;-83
2021/08/21 04:02:41;;;;;;;1.77;1.63;;;24.10;55.00;;;;;;6242380;23;20144;-83
2021/08/21 04:05:07;;;;;;;2.30;2.10;;;24.10;55.00;;;;;;6241346;23;20381;-82
2021/08/21 04:07:35;;;;;;;2.03;1.83;;;24.10;55.00;;;;;;6239043;23;20222;-82
2021/08/21 04:10:07;;;;;;;2.33;1.70;;;24.10;55.00;;;;;;6241275;23;20362;-83
2021/08/21 04:12:33;;;;;;;2.27;2.00;;;24.10;55.50;;;;;;6239057;23;20378;-82
2021/08/21 04:14:58;;;;;;;2.13;1.93;;;24.10;55.00;;;;;;6238796;23;20454;-83
2021/08/21 04:17:24;;;;;;;1.73;1.57;;;24.10;55.00;;;;;;6260649;23;20152;-83
2021/08/21 04:19:50;;;;;;;2.20;2.00;;;24.10;55.00;;;;;;6235827;23;20163;-82
2021/08/21 04:22:16;;;;;;;2.03;1.83;;;24.10;55.00;;;;;;6235342;23;20151;-82
2021/08/21 04:24:41;;;;;;;2.53;2.30;;;24.10;55.00;;;;;;6259997;23;20830;-82
2021/08/21 04:27:07;;;;;;;2.47;2.27;;;24.10;55.00;;;;;;6233648;23;20252;-82
2021/08/21 04:30:16;;;;;;;2.27;1.90;;;24.10;55.00;;;;;;6235499;23;20135;-83
2021/08/21 04:32:42;;;;;;;2.57;1.90;;;24.20;55.00;;;;;;6233732;23;20151;-82
2021/08/21 04:35:08;;;;;;;2.40;2.00;;;24.10;55.00;;;;;;6259191;23;20434;-82
2021/08/21 04:37:33;;;;;;;2.50;2.30;;;24.10;55.00;;;;;;6236139;23;20143;-82
2021/08/21 04:39:59;;;;;;;1.90;1.70;;;24.10;55.10;;;;;;6235826;23;20151;-82
2021/08/21 04:42:25;;;;;;;2.10;1.77;;;24.10;55.00;;;;;;6259699;23;20151;-82
2021/08/21 04:44:51;;;;;;;2.17;1.97;;;24.10;55.00;;;;;;6236292;23;20377;-82
2021/08/21 04:47:16;;;;;;;2.40;2.20;;;24.10;55.00;;;;;;6237127;23;20143;-83
2021/08/21 04:49:42;;;;;;;2.20;2.00;;;24.10;55.00;;;;;;6236481;23;20155;-83
2021/08/21 04:52:08;;;;;;;2.40;2.20;;;24.10;55.00;;;;;;6260481;23;20159;-83
2021/08/21 04:54:33;;;;;;;2.00;1.80;;;24.10;55.00;;;;;;6235810;23;20174;-82
2021/08/21 04:56:59;;;;;;;2.00;1.80;;;24.10;55.00;;;;;;6236855;23;20155;-82
2021/08/21 04:59:25;;;;;;;2.60;2.40;;;24.10;55.00;;;;;;6264218;23;20135;-82
2021/08/21 05:01:50;;;;;;;2.40;2.17;;;24.20;55.10;;;;;;6235936;23;20150;-83
2021/08/21 05:04:16;;;;;;;2.03;1.70;;;24.20;55.10;;;;;;6238937;23;20171;-82
2021/08/21 05:06:41;;;;;;;2.30;2.10;;;24.10;55.00;;;;;;6238218;23;20603;-82
2021/08/21 05:09:07;;;;;;;2.10;1.90;;;24.20;55.00;;;;;;6236511;23;20151;-81
2021/08/21 05:11:33;;;;;;;2.10;1.80;;;24.20;55.00;;;;;;6261697;23;20155;-82
2021/08/21 05:13:59;;;;;;;1.80;1.70;;;24.20;55.00;;;;;;6261939;23;20175;-81
2021/08/21 05:16:24;;;;;;;2.03;1.87;;;24.20;55.00;;;;;;6233400;23;20154;-81
2021/08/21 05:18:56;;;;;;;1.80;1.70;;;24.20;55.00;;;;;;6258975;23;20155;-81
2021/08/21 05:21:31;;;;;;;2.20;1.90;;;24.20;55.00;;;;;;6234334;23;20147;-81
2021/08/21 05:23:57;;;;;;;1.93;1.73;;;24.20;55.00;;;;;;6234117;23;20352;-82
2021/08/21 05:26:24;;;;;;;2.10;1.90;;;24.20;55.00;;;;;;6225751;23;20391;-82
2021/08/21 05:28:50;;;;;;;2.07;1.97;;;24.20;55.00;;;;;;6177618;23;20203;-82
2021/08/21 05:31:16;;;;;;;2.10;1.90;;;24.20;55.00;;;;;;6177812;23;20387;-82
2021/08/21 05:33:42;;;;;;;1.80;1.63;;;24.20;55.00;;;;;;6178328;23;20419;-82
2021/08/21 05:36:07;;;;;;;2.30;2.10;;;24.20;54.90;;;;;;6204965;23;20715;-82
2021/08/21 05:38:33;;;;;;;2.17;1.97;;;24.20;54.90;;;;;;6204373;23;20144;-82
2021/08/21 05:40:59;;;;;;;2.10;1.90;;;24.30;55.00;;;;;;6204741;23;20183;-82
2021/08/21 05:43:24;;;;;;;2.13;1.93;;;24.20;54.90;;;;;;6179187;23;20163;-82
2021/08/21 05:45:50;;;;;;;1.97;1.77;;;24.30;55.00;;;;;;6179085;23;20160;-82
2021/08/21 05:48:16;;;;;;;2.33;2.13;;;24.30;55.00;;;;;;6179173;23;20156;-82
2021/08/21 05:50:42;;;;;;;2.63;2.43;;;24.20;54.80;;;;;;6205488;23;20147;-81
2021/08/21 05:53:07;;;;;;;2.37;1.80;;;24.30;54.90;;;;;;6181047;23;20180;-82
2021/08/21 05:55:33;;;;;;;2.70;1.97;;;24.30;54.90;;;;;;6208415;23;20157;-81
2021/08/21 05:57:59;;;;;;;1.97;1.67;;;24.30;54.90;;;;;;6206905;23;20211;-82
2021/08/21 06:00:25;;;;;;;2.33;1.90;;;24.30;54.90;;;;;;6179073;23;20219;-81
2021/08/21 06:02:51;;;;;;;2.50;2.10;;;24.30;54.90;;;;;;6208178;23;20147;-83
2021/08/21 06:05:16;;;;;;;1.87;1.70;;;24.30;54.90;;;;;;6205179;23;20219;-83
2021/08/21 06:07:42;;;;;;;1.80;1.67;;;24.30;54.80;;;;;;6179154;23;20394;-82
2021/08/21 06:10:08;;;;;;;2.20;2.00;;;24.30;54.80;;;;;;6207088;23;20219;-83
2021/08/21 06:12:35;;;;;;;2.27;2.00;;;24.30;54.80;;;;;;6204010;23;20148;-83
2021/08/21 06:15:01;;;;;;;2.23;2.03;;;24.30;54.80;;;;;;6177343;23;20387;-82
2021/08/21 06:17:26;;;;;;;2.10;1.90;;;24.30;54.80;;;;;;6204017;23;20373;-83
2021/08/21 06:19:52;;;;;;;2.10;1.80;;;24.30;54.80;;;;;;6204552;23;20151;-83
2021/08/21 06:22:18;;;;;;;2.27;2.07;;;24.30;54.80;;;;;;6178338;23;20163;-83
2021/08/21 06:24:43;;;;;;;1.90;1.70;;;24.40;54.80;;;;;;6178347;23;20151;-83
2021/08/21 06:27:09;;;;;;;2.23;2.03;;;24.30;54.70;;;;;;6204445;23;20170;-83
2021/08/21 06:29:35;;;;;;;2.37;2.17;;;24.30;54.70;;;;;;6203818;23;20158;-82
2021/08/21 06:32:03;;;;;;;2.90;2.60;;;24.40;54.80;;;;;;6178533;23;20407;-82
2021/08/21 06:34:29;;;;;;;2.13;1.93;;;24.40;54.80;;;;;;6203837;23;20426;-83
2021/08/21 06:36:56;;;;;;;2.40;2.20;;;24.40;54.80;;;;;;6205358;23;20695;-82
2021/08/21 06:39:22;;;;;;;2.13;1.87;;;24.30;54.70;;;;;;6180351;23;20143;-83
2021/08/21 06:41:48;;;;;;;2.50;2.30;;;24.40;54.80;;;;;;6204751;23;20383;-82
2021/08/21 06:44:13;;;;;;;2.23;2.03;;;24.40;54.80;;;;;;6205023;23;20234;-83
2021/08/21 06:46:39;;;;;;;2.20;1.93;;;24.40;54.80;;;;;;6180883;23;20151;-82
2021/08/21 06:49:05;;;;;;;2.50;2.30;;;24.40;54.80;;;;;;6206221;23;20147;-83
2021/08/21 06:51:30;;;;;;;2.57;2.37;;;24.40;54.80;;;;;;6207426;23;20594;-83
2021/08/21 06:53:56;;;;;;;2.20;2.00;;;24.40;54.80;;;;;;6182293;23;20176;-83
2021/08/21 06:56:22;;;;;;;2.13;1.93;;;24.40;54.80;;;;;;6204937;23;20207;-83
2021/08/21 06:58:47;;;;;;;2.30;2.00;;;24.40;54.80;;;;;;6207301;23;20504;-82
2021/08/21 07:01:13;;;;;;;2.10;1.97;;;24.40;54.80;;;;;;6180480;23;20470;-82
2021/08/21 07:03:39;;;;;;;2.10;1.80;;;24.40;54.70;;;;;;6204136;23;20152;-82
2021/08/21 07:06:07;;;;;;;2.40;2.00;;;24.40;54.80;;;;;;6206876;23;20143;-82
2021/08/21 07:08:33;;;;;;;1.90;1.80;;;24.40;54.70;;;;;;6205159;23;20163;-82
2021/08/21 07:10:58;;;;;;;2.30;2.10;;;24.40;54.80;;;;;;6202831;23;20390;-82
2021/08/21 07:13:27;;;;;;;1.90;1.70;;;24.40;54.70;;;;;;6177160;23;20180;-82
2021/08/21 07:15:53;;;;;;;2.13;1.93;;;24.40;54.70;;;;;;6204204;23;20170;-82
2021/08/21 07:18:18;;;;;;;2.77;1.93;;;24.40;55.30;;;;;;6175356;23;20456;-83
2021/08/21 07:20:44;;;;;;;2.50;2.30;;;24.40;54.70;;;;;;6226737;23;20202;-82
2021/08/21 07:23:10;;;;;;;2.27;2.07;;;24.40;54.80;;;;;;6267527;23;20161;-82
2021/08/21 07:25:36;;;;;;;2.40;2.13;;;24.40;54.70;;;;;;6291572;22;20369;-82
2021/08/21 07:28:05;;;;;;;2.47;2.27;;;24.40;54.70;;;;;;6266432;22;20142;-82
2021/08/21 07:30:30;;;;;;;2.07;1.87;;;24.40;54.70;;;;;;6267236;23;20469;-82
2021/08/21 07:32:56;;;;;;;2.07;1.87;;;24.40;54.70;;;;;;6267288;23;20499;-82
2021/08/21 07:35:22;;;;;;;2.33;2.10;;;24.40;54.70;;;;;;6267184;23;20181;-82
2021/08/21 07:37:47;;;;;;;2.70;2.17;;;24.40;54.70;;;;;;6269151;23;20146;-83
2021/08/21 07:40:14;;;;;;;2.57;2.37;;;24.40;54.70;;;;;;6291894;22;20381;-82
2021/08/21 07:42:40;;;;;;;2.63;2.43;;;24.40;54.70;;;;;;6268651;23;20142;-83
2021/08/21 07:45:06;;;;;;;2.40;2.20;;;24.40;54.70;;;;;;6268739;22;20456;-82
2021/08/21 07:47:32;;;;;;;2.20;2.00;;;24.40;54.70;;;;;;6269416;22;20373;-83
2021/08/21 07:49:58;;;;;;;2.10;1.90;;;24.40;54.70;;;;;;6296040;22;20409;-83
2021/08/21 07:52:24;;;;;;;2.43;2.03;;;24.40;54.70;;;;;;6269351;23;20180;-82
2021/08/21 07:54:49;;;;;;;2.30;2.10;;;24.40;54.70;;;;;;6268406;23;20185;-82
2021/08/21 07:57:15;;;;;;;2.87;2.33;;;24.40;54.70;;;;;;6271220;23;20142;-82
2021/08/21 07:59:41;;;;;;;2.47;2.27;;;24.40;54.70;;;;;;6268237;23;20142;-82
2021/08/21 08:02:09;;;;;;;2.33;2.13;;;24.40;54.70;;;;;;6269147;23;20255;-82
2021/08/21 08:04:35;;;;;;;2.50;2.30;;;24.50;54.70;;;;;;6270822;22;20166;-83
2021/08/21 08:07:01;;;;;;;3.07;2.77;;;24.50;55.30;;;;;;6269057;22;20441;-82
2021/08/21 08:09:29;;;;;;;2.27;2.00;;;24.50;54.70;;;;;;6265914;23;20146;-83
2021/08/21 08:11:55;;;;;;;2.50;2.30;;;24.50;54.70;;;;;;6267939;23;20173;-83
2021/08/21 08:14:24;;;;;;;1.80;1.70;;;24.50;54.70;;;;;;6265581;23;20423;-83
2021/08/21 08:16:50;;;;;;;2.10;2.00;;;24.50;55.30;;;;;;6265955;23;20381;-83
2021/08/21 08:19:15;;;;;;;2.20;2.00;;;24.40;54.70;;;;;;6264918;23;20711;-83
2021/08/21 08:21:41;;;;;;;2.67;2.47;;;24.50;54.70;;;;;;6210450;23;20159;-82
2021/08/21 08:24:07;;;;;;;2.60;2.40;;;24.50;54.70;;;;;;6237559;23;20147;-82
2021/08/21 08:26:32;;;;;;;2.37;2.07;;;24.40;54.70;;;;;;6211426;23;20162;-82
2021/08/21 08:28:58;;;;;;;2.40;2.20;;;24.50;54.70;;;;;;6211190;23;20151;-83
2021/08/21 08:31:24;;;;;;;2.07;1.87;;;24.50;54.70;;;;;;6236169;23;20182;-82
2021/08/21 08:33:49;;;;;;;2.27;2.07;;;24.50;54.70;;;;;;6208900;23;20180;-83
2021/08/21 08:36:15;;;;;;;2.43;1.87;;;24.50;54.70;;;;;;6209226;23;20151;-82
2021/08/21 08:38:41;;;;;;;3.10;2.73;;;24.50;54.70;;;;;;6237057;23;20143;-82
2021/08/21 08:41:30;;;;;;;2.50;2.30;;;24.50;54.70;;;;;;6237247;23;20143;-83
2021/08/21 08:43:57;;;;;;;2.50;2.30;;;24.50;54.70;;;;;;6210912;23;20147;-83
2021/08/21 08:46:25;;;;;;;2.27;2.07;;;24.50;54.70;;;;;;6213921;23;20385;-82
2021/08/21 08:48:52;;;;;;;2.60;2.07;;;24.50;54.70;;;;;;6237418;23;20366;-83
2021/08/21 08:51:17;;;;;;;2.07;1.87;;;24.50;54.70;;;;;;6237072;23;20382;-83
2021/08/21 08:53:43;;;;;;;2.40;2.13;;;24.50;54.70;;;;;;6212772;23;20410;-83
2021/08/21 08:56:09;;;;;;;2.30;2.10;;;24.50;54.70;;;;;;6209947;23;20158;-82
2021/08/21 08:58:34;;;;;;;2.57;2.27;;;24.50;54.70;;;;;;6236610;23;20139;-83
2021/08/21 09:01:00;;;;;;;2.80;2.60;;;24.50;54.70;;;;;;6237188;23;20170;-82
2021/08/21 09:03:27;;;;;;;2.60;2.40;;;24.50;54.70;;;;;;6235196;23;20147;-82
2021/08/21 09:05:54;;;;;;;2.27;2.07;;;24.50;54.70;;;;;;6208003;23;20185;-83
2021/08/21 09:08:26;;;;;;;2.63;2.43;;;24.50;54.70;;;;;;6235057;23;20434;-83
2021/08/21 09:10:53;;;;;;;2.50;2.30;;;24.50;54.70;;;;;;6209789;23;20371;-82
2021/08/21 09:13:20;;;;;;;2.40;2.20;;;24.50;54.70;;;;;;6236179;23;20429;-83
2021/08/21 09:15:49;;;;;;;2.40;2.20;;;24.50;54.70;;;;;;6208448;23;20845;-82
2021/08/21 09:18:29;;;;;;;2.43;2.23;;;24.50;54.70;;;;;;6209875;23;20379;-82
2021/08/21 09:21:00;;;;;;;2.73;2.53;;;24.50;54.70;;;;;;6246199;23;20389;-82
2021/08/21 09:23:40;;;;;;;2.60;2.40;;;24.50;54.70;;;;;;6265370;23;20369;-83
2021/08/21 09:26:07;;;;;;;2.93;2.73;;;24.50;54.70;;;;;;6266648;23;20464;-83
2021/08/21 09:28:34;;;;;;;3.23;2.93;;;24.50;54.80;;;;;;6266520;23;20388;-83
2021/08/21 09:31:13;;;;;;;2.57;2.37;;;24.50;54.80;;;;;;6268605;23;20389;-82
2021/08/21 09:33:41;;;;;;;2.37;2.00;;;24.50;54.80;;;;;;6267124;23;20439;-82
2021/08/21 09:36:12;;;;;;;2.60;2.40;;;24.50;54.80;;;;;;6292270;22;20416;-83
2021/08/21 09:38:39;;;;;;;2.50;2.30;;;24.50;54.80;;;;;;6294233;22;20416;-82
2021/08/21 09:41:08;;;;;;;2.87;2.57;;;24.50;54.80;;;;;;6264762;23;20796;-82
2021/08/21 09:43:36;;;;;;;2.23;1.93;;;24.50;54.80;;;;;;6267597;23;20428;-82
2021/08/21 09:46:14;;;;;;;2.27;2.00;;;24.50;54.80;;;;;;6266023;23;20385;-82
2021/08/21 09:49:01;;;;;;;2.23;1.97;;;24.50;54.70;;;;;;6264577;23;20427;-82
2021/08/21 09:51:43;;;;;;;2.50;2.23;;;24.50;54.70;;;;;;6264559;23;20443;-81
2021/08/21 09:54:15;;;;;;;2.50;2.20;;;24.50;54.80;;;;;;6265610;22;20396;-82
2021/08/21 09:56:53;;;;;;;2.43;2.20;;;24.50;54.80;;;;;;6265928;22;20382;-82
2021/08/21 09:59:34;;;;;;;2.40;2.20;;;24.50;54.80;;;;;;6263602;23;20376;-82
2021/08/21 10:02:05;;;;;;;2.47;2.10;;;24.50;54.80;;;;;;6265276;22;20357;-82
2021/08/21 10:04:31;;;;;;;2.20;2.00;;;24.50;54.80;;;;;;6264371;22;20844;-82
2021/08/21 10:06:58;;;;;;;2.03;1.90;;;24.50;54.80;;;;;;6291607;22;20385;-82
2021/08/21 10:09:27;;;;;;;2.40;2.20;;;24.50;54.80;;;;;;6264867;23;20381;-82
2021/08/21 10:11:54;;;;;;;2.57;2.37;;;24.50;54.80;;;;;;6295075;22;20375;-82
2021/08/21 10:14:23;;;;;;;2.10;1.90;;;24.50;54.80;;;;;;6270631;22;20405;-82
2021/08/21 10:16:49;;;;;;;2.73;2.53;;;24.50;54.80;;;;;;6269124;23;20697;-82
2021/08/21 10:19:18;;;;;;;2.13;1.93;;;24.50;54.80;;;;;;6266641;23;20386;-82
2021/08/21 10:21:58;;;;;;;2.50;2.30;;;24.50;54.80;;;;;;6210216;23;20382;-82
2021/08/21 10:24:29;;;;;;;2.60;2.40;;;24.50;54.70;;;;;;6236536;23;20353;-83
2021/08/21 10:27:01;;;;;;;2.80;2.50;;;24.50;54.80;;;;;;6238625;23;20358;-83
2021/08/21 10:29:27;;;;;;;2.47;2.27;;;24.50;55.30;;;;;;6211637;23;20375;-83
2021/08/21 10:31:53;;;;;;;2.20;2.00;;;24.50;54.80;;;;;;6210085;23;20393;-82
2021/08/21 10:34:19;;;;;;;2.70;2.50;;;24.50;54.80;;;;;;6237954;23;20410;-83
2021/08/21 10:36:56;;;;;;;2.53;2.33;;;24.50;54.80;;;;;;6236168;23;20373;-83
2021/08/21 10:39:30;;;;;;;2.67;2.47;;;24.50;54.80;;;;;;6210538;23;20162;-83
2021/08/21 10:41:56;;;;;;;2.50;2.30;;;24.50;54.80;;;;;;6237533;23;20833;-83
2021/08/21 10:44:43;;;;;;;2.87;2.67;;;24.50;55.30;;;;;;6234351;23;20366;-83
2021/08/21 10:47:35;;;;;;;2.20;2.00;;;24.50;54.70;;;;;;6207301;23;20155;-82
2021/08/21 10:50:28;;;;;;;2.67;2.47;;;24.50;54.70;;;;;;6207340;23;20448;-82
2021/08/21 10:52:56;;;;;;;2.27;2.07;;;24.50;54.80;;;;;;6234586;23;20355;-82
2021/08/21 10:55:27;;;;;;;2.30;2.10;;;24.50;54.80;;;;;;6182606;23;20387;-82
2021/08/21 10:58:00;;;;;;;2.70;2.50;;;24.50;54.80;;;;;;6234711;23;20439;-82
2021/08/21 11:00:38;;;;;;;3.07;2.00;;;24.50;54.80;;;;;;6233266;23;20343;-82
2021/08/21 11:03:08;;;;;;;2.50;2.30;;;24.50;54.80;;;;;;6233640;23;20373;-82
2021/08/21 11:05:48;;;;;;;2.60;2.40;;;24.50;54.80;;;;;;6234651;23;20362;-82
2021/08/21 11:08:15;;;;;;;2.40;2.00;;;24.50;54.80;;;;;;6206870;23;20382;-83
2021/08/21 11:10:41;;;;;;;2.37;2.17;;;24.50;55.40;;;;;;6234032;23;20398;-83
2021/08/21 11:13:09;;;;;;;2.20;2.00;;;24.50;54.80;;;;;;6208141;23;20409;-83
2021/08/21 11:15:38;;;;;;;2.10;1.90;;;24.50;54.80;;;;;;6234106;23;20394;-83
2021/08/21 11:18:21;;;;;;;2.27;2.07;;;24.50;54.80;;;;;;6235042;23;20378;-82
2021/08/21 11:20:47;;;;;;;2.13;1.90;;;24.50;54.80;;;;;;6217177;23;20397;-82
2021/08/21 11:23:15;;;;;;;2.40;2.07;;;24.50;54.80;;;;;;6292207;22;20384;-83
2021/08/21 11:25:43;;;;;;;2.47;2.20;;;24.50;54.80;;;;;;6267301;23;20199;-83
2021/08/21 11:28:20;;;;;;;2.30;2.10;;;24.50;54.80;;;;;;6264093;23;20377;-83
2021/08/21 11:31:09;;;;;;;2.90;2.70;;;24.50;54.80;;;;;;6267975;22;20357;-83
2021/08/21 11:33:40;;;;;;;1.90;1.80;;;24.50;54.80;;;;;;6265480;22;20405;-83
2021/08/21 11:36:08;;;;;;;2.27;2.07;;;24.50;54.80;;;;;;6264128;23;20374;-83
2021/08/21 11:38:38;;;;;;;2.40;2.20;;;24.50;54.80;;;;;;6266795;22;20369;-83
2021/08/21 11:41:11;;;;;;;2.47;2.10;;;24.50;54.80;;;;;;6262440;23;20435;-83
2021/08/21 11:43:41;;;;;;;2.13;1.93;;;24.50;54.80;;;;;;6263164;23;20380;-83
2021/08/21 11:46:07;;;;;;;2.13;1.93;;;24.50;54.80;;;;;;6287598;22;20385;-83
2021/08/21 11:48:35;;;;;;;2.17;1.80;;;24.50;54.80;;;;;;6262802;22;20374;-83
2021/08/21 11:51:02;;;;;;;2.40;2.20;;;24.50;54.80;;;;;;6263994;22;20369;-83
2021/08/21 11:53:42;;;;;;;2.53;2.13;;;24.50;54.90;;;;;;6263037;22;20413;-82
2021/08/21 11:56:10;;;;;;;2.20;2.00;;;24.50;55.30;;;;;;6264314;22;20357;-82
2021/08/21 11:58:46;;;;;;;2.63;2.37;;;24.50;54.80;;;;;;6263924;22;20370;-82
2021/08/21 12:01:13;;;;;;;2.00;1.80;;;24.50;54.80;;;;;;6263330;23;20398;-82
2021/08/21 12:06:30;;;;;;;2.10;1.90;;;24.50;54.80;;;;;;6275076;22;20392;-83
2021/08/21 12:09:09;;;;;;;2.30;2.10;;;24.50;54.80;;;;;;6266408;23;20377;-83
2021/08/21 12:11:35;;;;;;;3.00;2.13;;;24.50;54.80;;;;;;6266704;23;20381;-83
2021/08/21 12:14:01;;;;;;;2.27;1.83;;;24.50;54.90;;;;;;6266237;23;20413;-83
2021/08/21 12:16:32;;;;;;;1.93;1.73;;;24.50;54.90;;;;;;6267582;22;20354;-83
2021/08/21 12:18:59;;;;;;;2.27;2.03;;;24.50;54.80;;;;;;6267214;23;20372;-83
2021/08/21 12:21:25;;;;;;;2.20;2.00;;;24.50;54.90;;;;;;6269016;23;20416;-82
2021/08/21 12:23:55;;;;;;;1.97;1.80;;;24.50;54.90;;;;;;6266704;23;20416;-82
2021/08/21 12:26:37;;;;;;;2.30;2.10;;;24.50;54.90;;;;;;6268966;22;20366;-82
2021/08/21 12:29:05;;;;;;;2.23;1.80;;;24.50;54.80;;;;;;6268478;22;20354;-82
2021/08/21 12:31:40;;;;;;;1.80;1.70;;;24.50;54.90;;;;;;6264503;23;20381;-82
2021/08/21 12:34:07;;;;;;;2.37;1.90;;;24.50;54.90;;;;;;6268490;22;20436;-83
2021/08/21 12:36:41;;;;;;;2.00;1.87;;;24.50;54.90;;;;;;6266435;22;20398;-82
2021/08/21 12:39:12;;;;;;;2.10;1.90;;;24.50;54.90;;;;;;6265767;22;20461;-82
2021/08/21 12:41:51;;;;;;;2.13;1.90;;;24.50;54.90;;;;;;6265624;22;20451;-82
2021/08/21 12:44:22;;;;;;;2.20;2.00;;;24.50;54.90;;;;;;6265885;23;20378;-83
2021/08/21 12:46:51;;;;;;;2.00;1.73;;;24.50;54.90;;;;;;6265551;22;20354;-82
2021/08/21 12:49:26;;;;;;;2.57;1.87;;;24.50;54.90;;;;;;6265511;23;20389;-82
2021/08/21 12:51:55;;;;;;;2.07;1.90;;;24.50;54.90;;;;;;6266936;22;20364;-82
2021/08/21 12:54:28;;;;;;;2.43;1.97;;;24.50;54.90;;;;;;6267073;23;20754;-83